createdAt,value
2018-05-21T00:00:48.825Z,100540.61
2018-05-21T00:03:17.467Z,100540.19
2018-05-21T00:05:46.986Z,100544.80
2018-05-21T00:08:15.560Z,100540.30
2018-05-21T00:10:50.486Z,100540.30
2018-05-21T00:13:19.598Z,100538.25
2018-05-21T00:15:54.040Z,100540.42
2018-05-21T00:18:22.643Z,100537.21
2018-05-21T00:20:52.992Z,100534.18
2018-05-21T00:23:22.037Z,100534.61
2018-05-21T00:25:56.169Z,100532.48
2018-05-21T00:28:25.480Z,100533.66
2018-05-21T00:30:54.128Z,100536.61
2018-05-21T00:35:56.826Z,100532.39
2018-05-21T00:38:29.265Z,100532.08
2018-05-21T00:40:57.894Z,100530.19
2018-05-21T00:43:26.967Z,100520.47
2018-05-21T00:45:55.917Z,100525.30
2018-05-21T00:48:24.508Z,100523.92
2018-05-21T00:51:03.539Z,100520.59
2018-05-21T00:53:32.105Z,100521.55
2018-05-21T00:56:06.423Z,100517.03
2018-05-21T00:58:36.154Z,100513.23
2018-05-21T01:01:10.675Z,100514.43
2018-05-21T01:03:39.231Z,100513.39
2018-05-21T01:06:08.223Z,100508.82
2018-05-21T01:08:36.760Z,100511.91
2018-05-21T01:11:05.322Z,100513.66
2018-05-21T01:13:33.900Z,100505.69
2018-05-21T01:16:04.358Z,100499.50
2018-05-21T01:18:33.164Z,100504.28
2018-05-21T01:21:02.330Z,100506.62
2018-05-21T01:23:31.803Z,100508.55
2018-05-21T01:26:03.169Z,100510.97
2018-05-21T01:28:31.807Z,100509.69
2018-05-21T01:31:00.350Z,100510.25
2018-05-21T01:33:29.327Z,100512.61
2018-05-21T01:36:05.340Z,100509.10
2018-05-21T01:38:34.189Z,100513.22
2018-05-21T01:41:04.701Z,100503.20
2018-05-21T01:43:34.199Z,100505.55
2018-05-21T01:46:04.729Z,100503.50
2018-05-21T01:48:34.283Z,100501.47
2018-05-21T01:51:02.904Z,100495.14
2018-05-21T01:53:31.663Z,100498.00
2018-05-21T01:56:00.225Z,100494.67
2018-05-21T01:58:33.775Z,100494.01
2018-05-21T02:01:02.352Z,100494.83
2018-05-21T02:03:31.106Z,100496.53
2018-05-21T02:06:05.524Z,100495.07
2018-05-21T02:08:34.394Z,100489.47
2018-05-21T02:11:03.060Z,100483.72
2018-05-21T02:13:31.779Z,100481.63
2018-05-21T02:16:00.666Z,100481.15
2018-05-21T02:18:36.354Z,100476.66
2018-05-21T02:21:05.225Z,100474.98
2018-05-21T02:23:39.536Z,100474.61
2018-05-21T02:26:08.280Z,100477.40
2018-05-21T02:28:37.194Z,100477.85
2018-05-21T02:31:05.730Z,100473.17
2018-05-21T02:33:34.601Z,100482.23
2018-05-21T02:36:05.221Z,100482.13
2018-05-21T02:41:13.666Z,100477.77
2018-05-21T02:43:42.499Z,100480.38
2018-05-21T02:46:11.114Z,100476.44
2018-05-21T02:48:40.494Z,100478.56
2018-05-21T02:51:09.006Z,100471.73
2018-05-21T02:53:37.559Z,100460.58
2018-05-21T02:56:06.088Z,100471.92
2018-05-21T02:58:35.698Z,100468.06
2018-05-21T03:01:09.501Z,100472.89
2018-05-21T03:03:38.372Z,100467.95
2018-05-21T03:06:06.908Z,100469.53
2018-05-21T03:08:36.788Z,100467.50
2018-05-21T03:11:05.776Z,100474.28
2018-05-21T03:13:34.311Z,100469.69
2018-05-21T03:16:04.326Z,100470.70
2018-05-21T03:18:33.346Z,100467.94
2018-05-21T03:21:03.305Z,100464.30
2018-05-21T03:23:32.252Z,100465.48
2018-05-21T03:26:04.432Z,100467.54
2018-05-21T03:28:33.635Z,100467.01
2018-05-21T03:31:02.235Z,100469.67
2018-05-21T03:33:30.970Z,100469.11
2018-05-21T03:35:59.986Z,100470.01
2018-05-21T03:38:28.613Z,100471.74
2018-05-21T03:40:57.192Z,100466.48
2018-05-21T03:43:26.099Z,100477.63
2018-05-21T03:45:57.864Z,100470.70
2018-05-21T03:48:26.435Z,100473.02
2018-05-21T03:50:55.013Z,100479.47
2018-05-21T03:53:24.079Z,100479.47
2018-05-21T03:55:53.146Z,100481.94
2018-05-21T03:58:35.493Z,100481.09
2018-05-21T04:03:19.279Z,100481.52
2018-05-21T04:05:48.053Z,100483.94
2018-05-21T04:08:16.975Z,100481.70
2018-05-21T04:10:49.980Z,100487.36
2018-05-21T04:13:18.719Z,100482.42
2018-05-21T04:15:49.837Z,100487.13
2018-05-21T04:18:18.474Z,100486.65
2018-05-21T04:20:47.382Z,100481.63
2018-05-21T04:23:16.356Z,100484.15
2018-05-21T04:25:44.935Z,100479.20
2018-05-21T04:28:13.545Z,100484.86
2018-05-21T04:30:43.004Z,100475.09
2018-05-21T04:33:22.262Z,100482.02
2018-05-21T04:35:50.847Z,100485.95
2018-05-21T04:38:19.463Z,100487.16
2018-05-21T04:40:48.433Z,100491.00
2018-05-21T04:43:19.035Z,100496.98
2018-05-21T04:45:50.790Z,100491.11
2018-05-21T04:48:19.363Z,100490.92
2018-05-21T04:50:48.057Z,100489.41
2018-05-21T04:53:16.584Z,100483.01
2018-05-21T04:55:45.616Z,100484.44
2018-05-21T04:58:14.174Z,100482.55
2018-05-21T05:00:46.470Z,100486.08
2018-05-21T05:03:15.065Z,100488.55
2018-05-21T05:05:43.650Z,100490.16
2018-05-21T05:08:12.536Z,100497.05
2018-05-21T05:10:41.122Z,100489.84
2018-05-21T05:13:12.566Z,100486.38
2018-05-21T05:15:41.222Z,100483.95
2018-05-21T05:18:09.750Z,100479.19
2018-05-21T05:20:38.667Z,100482.99
2018-05-21T05:23:07.586Z,100480.63
2018-05-21T05:25:41.360Z,100480.72
2018-05-21T05:28:09.936Z,100481.23
2018-05-21T05:30:43.410Z,100479.00
2018-05-21T05:33:12.451Z,100483.17
2018-05-21T05:35:40.970Z,100482.56
2018-05-21T05:38:16.218Z,100479.33
2018-05-21T05:40:45.123Z,100483.70
2018-05-21T05:43:15.477Z,100481.14
2018-05-21T05:45:43.951Z,100485.73
2018-05-21T05:48:13.624Z,100481.55
2018-05-21T05:50:42.779Z,100484.02
2018-05-21T05:53:16.618Z,100481.59
2018-05-21T05:55:45.163Z,100473.70
2018-05-21T05:58:13.722Z,100481.97
2018-05-21T06:00:42.767Z,100477.44
2018-05-21T06:03:11.338Z,100470.97
2018-05-21T06:05:39.953Z,100477.45
2018-05-21T06:08:08.905Z,100470.03
2018-05-21T06:10:37.451Z,100469.72
2018-05-21T06:13:06.116Z,100474.88
2018-05-21T06:15:35.762Z,100472.53
2018-05-21T06:18:05.648Z,100466.80
2018-05-21T06:20:44.866Z,100460.48
2018-05-21T06:23:13.706Z,100458.83
2018-05-21T06:25:44.163Z,100467.87
2018-05-21T06:28:12.906Z,100455.73
2018-05-21T06:30:41.825Z,100457.29
2018-05-21T06:33:10.446Z,100450.00
2018-05-21T06:35:39.054Z,100450.98
2018-05-21T06:38:08.123Z,100447.01
2018-05-21T06:40:36.723Z,100448.70
2018-05-21T06:43:11.265Z,100451.67
2018-05-21T06:45:40.294Z,100451.75
2018-05-21T06:48:14.071Z,100449.34
2018-05-21T06:50:42.664Z,100452.72
2018-05-21T06:53:12.293Z,100450.48
2018-05-21T06:55:41.127Z,100451.40
2018-05-21T06:58:14.363Z,100452.69
2018-05-21T07:00:43.706Z,100448.80
2018-05-21T07:03:14.286Z,100449.73
2018-05-21T07:05:43.670Z,100451.55
2018-05-21T07:08:12.975Z,100450.22
2018-05-21T07:10:41.589Z,100449.72
2018-05-21T07:13:10.606Z,100455.61
2018-05-21T07:15:39.650Z,100446.91
2018-05-21T07:18:14.128Z,100452.12
2018-05-21T07:20:43.557Z,100441.34
2018-05-21T07:23:12.130Z,100448.94
2018-05-21T07:25:40.656Z,100453.30
2018-05-21T07:28:09.699Z,100451.50
2018-05-21T07:30:39.273Z,100453.80
2018-05-21T07:33:07.924Z,100445.45
2018-05-21T07:35:37.646Z,100442.73
2018-05-21T07:38:06.295Z,100452.80
2018-05-21T07:40:36.248Z,100451.31
2018-05-21T07:43:06.009Z,100447.20
2018-05-21T07:45:45.859Z,100444.22
2018-05-21T07:48:14.933Z,100440.34
2018-05-21T07:50:43.572Z,100436.47
2018-05-21T07:53:16.994Z,100439.44
2018-05-21T07:55:46.045Z,100436.08
2018-05-21T07:58:14.927Z,100444.23
2018-05-21T08:00:49.584Z,100440.99
2018-05-21T08:03:18.115Z,100433.28
2018-05-21T08:05:47.221Z,100433.95
2018-05-21T08:08:16.132Z,100433.04
2018-05-21T08:10:50.113Z,100434.28
2018-05-21T08:13:18.736Z,100430.39
2018-05-21T08:15:47.583Z,100430.22
2018-05-21T08:18:16.226Z,100431.67
2018-05-21T08:20:45.331Z,100427.09
2018-05-21T08:23:13.980Z,100427.80
2018-05-21T08:25:57.200Z,100428.22
2018-05-21T08:28:26.362Z,100429.97
2018-05-21T08:30:55.016Z,100428.98
2018-05-21T08:33:24.415Z,100414.88
2018-05-21T08:35:53.325Z,100416.22
2018-05-21T08:38:23.258Z,100413.61
2018-05-21T08:40:51.837Z,100415.37
2018-05-21T08:43:20.820Z,100407.39
2018-05-21T08:45:49.900Z,100405.17
2018-05-21T08:48:18.563Z,100403.36
2018-05-21T08:50:57.996Z,100407.75
2018-05-21T08:53:26.603Z,100400.30
2018-05-21T08:56:00.124Z,100400.94
2018-05-21T08:58:29.203Z,100399.78
2018-05-21T09:00:58.023Z,100401.61
2018-05-21T09:03:26.603Z,100393.52
2018-05-21T09:05:56.071Z,100393.27
2018-05-21T09:08:24.690Z,100398.65
2018-05-21T09:10:53.302Z,100389.70
2018-05-21T09:13:29.620Z,100385.89
2018-05-21T09:15:58.366Z,100384.02
2018-05-21T09:18:27.023Z,100385.48
2018-05-21T09:20:56.291Z,100381.72
2018-05-21T09:23:24.857Z,100380.09
2018-05-21T09:25:53.856Z,100379.50
2018-05-21T09:28:24.691Z,100375.06
2018-05-21T09:30:53.243Z,100379.80
2018-05-21T09:33:21.856Z,100373.76
2018-05-21T09:35:50.813Z,100375.16
2018-05-21T09:38:19.481Z,100372.84
2018-05-21T09:40:48.051Z,100371.66
2018-05-21T09:43:23.771Z,100375.33
2018-05-21T09:45:52.668Z,100371.84
2018-05-21T09:48:21.242Z,100368.72
2018-05-21T09:50:51.146Z,100362.73
2018-05-21T09:53:19.706Z,100361.85
2018-05-21T09:55:48.609Z,100354.52
2018-05-21T09:58:17.245Z,100355.80
2018-05-21T10:00:51.223Z,100353.19
2018-05-21T10:03:20.568Z,100355.38
2018-05-21T10:05:49.118Z,100349.69
2018-05-21T10:08:21.433Z,100347.73
2018-05-21T10:10:50.374Z,100343.44
2018-05-21T10:13:24.646Z,100341.66
2018-05-21T10:15:53.835Z,100343.09
2018-05-21T10:18:22.825Z,100341.08
2018-05-21T10:20:51.399Z,100341.84
2018-05-21T10:23:24.976Z,100340.83
2018-05-21T10:25:53.923Z,100336.94
2018-05-21T10:28:23.306Z,100332.64
2018-05-21T10:30:51.898Z,100327.19
2018-05-21T10:33:20.890Z,100330.47
2018-05-21T10:38:28.665Z,100327.73
2018-05-21T10:40:57.665Z,100330.24
2018-05-21T10:43:26.276Z,100323.53
2018-05-21T10:45:55.233Z,100315.45
2018-05-21T10:48:24.909Z,100321.33
2018-05-21T10:50:53.892Z,100317.20
2018-05-21T10:53:22.515Z,100318.13
2018-05-21T10:55:53.553Z,100308.36
2018-05-21T10:58:23.042Z,100308.49
2018-05-21T11:00:53.187Z,100302.27
2018-05-21T11:06:01.816Z,100292.53
2018-05-21T11:08:32.836Z,100285.56
2018-05-21T11:11:03.006Z,100295.59
2018-05-21T11:13:36.812Z,100290.34
2018-05-21T11:16:07.137Z,100284.13
2018-05-21T11:18:37.534Z,100285.58
2018-05-21T11:21:06.843Z,100286.97
2018-05-21T11:23:37.699Z,100273.88
2018-05-21T11:26:10.892Z,100275.03
2018-05-21T11:28:40.201Z,100270.58
2018-05-21T11:31:09.817Z,100271.06
2018-05-21T11:33:39.173Z,100268.64
2018-05-21T11:36:10.173Z,100271.28
2018-05-21T11:38:40.385Z,100261.54
2018-05-21T11:41:10.298Z,100264.77
2018-05-21T11:43:39.993Z,100257.47
2018-05-21T11:46:10.268Z,100259.17
2018-05-21T11:48:39.675Z,100254.48
2018-05-21T11:51:08.936Z,100252.07
2018-05-21T11:53:38.665Z,100266.56
2018-05-21T11:56:08.277Z,100263.47
2018-05-21T11:58:39.684Z,100254.10
2018-05-21T12:01:11.281Z,100245.77
2018-05-21T12:03:42.308Z,100251.03
2018-05-21T12:06:14.770Z,100245.11
2018-05-21T12:11:24.280Z,100237.42
2018-05-21T12:13:54.461Z,100233.33
2018-05-21T12:16:25.491Z,100238.72
2018-05-21T12:18:54.269Z,100227.98
2018-05-21T12:21:22.783Z,100231.00
2018-05-21T12:23:55.857Z,100226.53
2018-05-21T12:26:24.423Z,100224.00
2018-05-21T12:28:52.994Z,100226.71
2018-05-21T12:31:22.104Z,100225.75
2018-05-21T12:33:50.673Z,100226.73
2018-05-21T12:36:19.512Z,100224.20
2018-05-21T12:38:49.735Z,100224.64
2018-05-21T12:41:18.283Z,100221.80
2018-05-21T12:43:49.738Z,100220.30
2018-05-21T12:46:19.498Z,100219.39
2018-05-21T12:48:48.085Z,100216.94
2018-05-21T12:51:16.692Z,100213.40
2018-05-21T12:53:46.335Z,100212.09
2018-05-21T12:56:14.964Z,100212.39
2018-05-21T12:58:44.621Z,100206.97
2018-05-21T13:01:13.475Z,100199.01
2018-05-21T13:03:41.999Z,100198.02
2018-05-21T13:06:10.554Z,100198.44
2018-05-21T13:08:39.555Z,100200.64
2018-05-21T13:11:08.123Z,100199.14
2018-05-21T13:13:42.872Z,100194.88
2018-05-21T13:16:13.217Z,100196.48
2018-05-21T13:18:44.776Z,100193.19
2018-05-21T13:21:13.444Z,100194.27
2018-05-21T13:23:46.903Z,100191.39
2018-05-21T13:26:15.839Z,100192.45
2018-05-21T13:28:45.863Z,100192.82
2018-05-21T13:31:15.249Z,100177.27
2018-05-21T13:33:48.464Z,100183.23
2018-05-21T13:36:17.732Z,100174.19
2018-05-21T13:38:47.940Z,100178.44
2018-05-21T13:41:16.819Z,100173.52
2018-05-21T13:43:47.333Z,100177.72
2018-05-21T13:46:16.337Z,100171.59
2018-05-21T13:48:44.906Z,100168.52
2018-05-21T13:53:48.457Z,100158.27
2018-05-21T13:56:17.275Z,100153.22
2018-05-21T13:58:47.630Z,100157.52
2018-05-21T14:01:16.864Z,100156.38
2018-05-21T14:03:46.328Z,100147.57
2018-05-21T14:06:14.987Z,100144.31
2018-05-21T14:08:43.829Z,100141.51
2018-05-21T14:11:12.373Z,100140.02
2018-05-21T14:13:40.878Z,100141.89
2018-05-21T14:16:10.247Z,100133.59
2018-05-21T14:18:42.260Z,100131.16
2018-05-21T14:21:10.943Z,100121.33
2018-05-21T14:23:40.589Z,100124.34
2018-05-21T14:26:09.232Z,100120.42
2018-05-21T14:28:38.009Z,100115.77
2018-05-21T14:31:07.051Z,100115.91
2018-05-21T14:33:36.139Z,100108.75
2018-05-21T14:36:08.569Z,100108.89
2018-05-21T14:38:38.716Z,100107.73
2018-05-21T14:41:08.055Z,100115.98
2018-05-21T14:43:36.755Z,100113.22
2018-05-21T14:46:07.420Z,100114.65
2018-05-21T14:48:36.724Z,100104.81
2018-05-21T14:51:05.310Z,100103.14
2018-05-21T14:53:34.330Z,100101.74
2018-05-21T14:56:05.656Z,100101.09
2018-05-21T14:58:34.880Z,100097.31
2018-05-21T15:01:04.038Z,100099.58
2018-05-21T15:03:35.788Z,100092.99
2018-05-21T15:06:06.697Z,100093.52
2018-05-21T15:08:43.751Z,100087.77
2018-05-21T15:11:13.562Z,100085.58
2018-05-21T15:13:42.314Z,100088.88
2018-05-21T15:16:11.347Z,100086.09
2018-05-21T15:18:44.018Z,100093.70
2018-05-21T15:21:12.712Z,100092.53
2018-05-21T15:23:42.155Z,100091.16
2018-05-21T15:26:10.788Z,100093.00
2018-05-21T15:28:45.315Z,100095.30
2018-05-21T15:31:14.242Z,100089.98
2018-05-21T15:33:42.860Z,100091.32
2018-05-21T15:36:11.570Z,100085.41
2018-05-21T15:38:49.587Z,100090.17
2018-05-21T15:41:18.352Z,100084.45
2018-05-21T15:43:46.985Z,100082.89
2018-05-21T15:46:18.281Z,100078.25
2018-05-21T15:48:47.591Z,100071.33
2018-05-21T15:51:16.176Z,100071.98
2018-05-21T15:53:45.883Z,100065.66
2018-05-21T15:56:14.486Z,100063.47
2018-05-21T15:58:43.139Z,100063.97
2018-05-21T16:01:18.564Z,100066.16
2018-05-21T16:03:47.162Z,100056.39
2018-05-21T16:06:21.600Z,100053.89
2018-05-21T16:08:50.171Z,100056.67
2018-05-21T16:11:18.749Z,100058.20
2018-05-21T16:13:47.311Z,100054.45
2018-05-21T16:16:15.864Z,100065.16
2018-05-21T16:18:52.551Z,100053.29
2018-05-21T16:21:25.022Z,100043.81
2018-05-21T16:23:54.714Z,100042.95
2018-05-21T16:26:23.242Z,100042.53
2018-05-21T16:28:52.353Z,100046.77
2018-05-21T16:31:20.979Z,100049.75
2018-05-21T16:33:53.469Z,100043.39
2018-05-21T16:36:22.120Z,100041.29
2018-05-21T16:38:50.762Z,100038.77
2018-05-21T16:41:19.581Z,100035.44
2018-05-21T16:43:48.209Z,100036.55
2018-05-21T16:46:25.458Z,100039.55
2018-05-21T16:48:54.500Z,100038.32
2018-05-21T16:51:23.067Z,100041.11
2018-05-21T16:53:51.690Z,100039.76
2018-05-21T16:56:20.661Z,100037.14
2018-05-21T16:58:50.097Z,100040.14
2018-05-21T17:01:18.748Z,100046.59
2018-05-21T17:06:27.201Z,100046.47
2018-05-21T17:08:59.791Z,100044.37
2018-05-21T17:11:28.383Z,100047.70
2018-05-21T17:13:59.425Z,100048.54
2018-05-21T17:16:27.999Z,100043.73
2018-05-21T17:18:56.561Z,100050.48
2018-05-21T17:21:25.452Z,100046.02
2018-05-21T17:23:54.194Z,100044.48
2018-05-21T17:26:22.727Z,100039.48
2018-05-21T17:28:51.953Z,100042.80
2018-05-21T17:31:20.692Z,100040.20
2018-05-21T17:33:49.501Z,100039.17
2018-05-21T17:36:18.645Z,100033.27
2018-05-21T17:38:47.384Z,100033.98
2018-05-21T17:41:15.907Z,100035.72
2018-05-21T17:43:45.369Z,100047.45
2018-05-21T17:46:17.824Z,100040.66
2018-05-21T17:48:46.553Z,100041.73
2018-05-21T17:51:15.117Z,100043.36
2018-05-21T17:53:45.562Z,100038.34
2018-05-21T17:56:14.503Z,100038.59
2018-05-21T17:58:43.044Z,100045.78
2018-05-21T18:01:11.666Z,100044.80
2018-05-21T18:03:40.698Z,100047.66
2018-05-21T18:06:09.265Z,100045.31
2018-05-21T18:08:41.930Z,100043.46
2018-05-21T18:11:10.912Z,100040.55
2018-05-21T18:16:15.052Z,100039.75
2018-05-21T18:18:48.174Z,100039.06
2018-05-21T18:21:16.695Z,100044.44
2018-05-21T18:23:46.559Z,100042.53
2018-05-21T18:26:15.108Z,100046.95
2018-05-21T18:28:47.480Z,100044.32
2018-05-21T18:31:17.905Z,100046.13
2018-05-21T18:33:50.246Z,100047.71
2018-05-21T18:36:18.772Z,100046.62
2018-05-21T18:38:49.598Z,100046.45
2018-05-21T18:41:18.183Z,100046.94
2018-05-21T18:43:46.772Z,100046.08
2018-05-21T18:46:15.757Z,100050.68
2018-05-21T18:48:44.791Z,100048.75
2018-05-21T18:51:13.582Z,100048.75
2018-05-21T18:53:42.563Z,100051.67
2018-05-21T18:56:19.480Z,100048.83
2018-05-21T18:58:48.157Z,100049.56
2018-05-21T19:01:17.788Z,100053.47
2018-05-21T19:03:46.413Z,100049.15
2018-05-21T19:06:15.231Z,100056.07
2018-05-21T19:08:50.041Z,100051.44
2018-05-21T19:11:18.651Z,100050.64
2018-05-21T19:13:48.153Z,100054.08
2018-05-21T19:16:21.995Z,100059.84
2018-05-21T19:18:50.782Z,100055.44
2018-05-21T19:21:21.458Z,100056.29
2018-05-21T19:23:50.665Z,100058.98
2018-05-21T19:26:22.512Z,100056.97
2018-05-21T19:28:56.105Z,100055.20
2018-05-21T19:31:24.729Z,100060.91
2018-05-21T19:33:53.433Z,100056.76
2018-05-21T19:36:22.342Z,100061.25
2018-05-21T19:38:58.695Z,100059.41
2018-05-21T19:41:27.869Z,100058.87
2018-05-21T19:43:59.149Z,100066.55
2018-05-21T19:46:27.765Z,100062.62
2018-05-21T19:48:56.656Z,100070.38
2018-05-21T19:51:25.417Z,100065.77
2018-05-21T19:53:54.201Z,100063.92
2018-05-21T19:56:34.218Z,100069.83
2018-05-21T19:59:03.349Z,100065.84
2018-05-21T20:01:42.796Z,100071.09
2018-05-21T20:04:11.956Z,100066.77
2018-05-21T20:06:40.850Z,100065.13
2018-05-21T20:09:13.596Z,100073.25
2018-05-21T20:11:43.649Z,100066.75
2018-05-21T20:14:13.262Z,100069.55
2018-05-21T20:16:41.994Z,100062.20
2018-05-21T20:19:11.098Z,100062.73
2018-05-21T20:21:40.704Z,100062.80
2018-05-21T20:24:10.449Z,100064.91
2018-05-21T20:26:39.414Z,100064.54
2018-05-21T20:29:08.024Z,100059.94
2018-05-21T20:31:37.733Z,100066.12
2018-05-21T20:34:06.635Z,100066.73
2018-05-21T20:36:35.259Z,100062.04
2018-05-21T20:39:04.486Z,100064.98
2018-05-21T20:41:39.539Z,100065.09
2018-05-21T20:44:08.105Z,100064.37
2018-05-21T20:46:43.177Z,100061.48
2018-05-21T20:49:12.143Z,100065.95
2018-05-21T20:51:46.701Z,100061.18
2018-05-21T20:54:15.177Z,100057.52
2018-05-21T20:56:47.739Z,100061.32
2018-05-21T20:59:16.280Z,100057.57
2018-05-21T21:01:44.895Z,100061.59
2018-05-21T21:04:13.903Z,100057.91
2018-05-21T21:06:46.847Z,100057.48
2018-05-21T21:09:15.709Z,100066.36
2018-05-21T21:11:45.665Z,100059.66
2018-05-21T21:14:14.245Z,100063.03
2018-05-21T21:16:42.910Z,100062.22
2018-05-21T21:19:12.060Z,100066.36
2018-05-21T21:21:40.822Z,100068.03
2018-05-21T21:24:09.406Z,100064.86
2018-05-21T21:26:39.546Z,100069.64
2018-05-21T21:29:14.964Z,100070.02
2018-05-21T21:31:43.662Z,100064.56
2018-05-21T21:34:14.498Z,100063.83
2018-05-21T21:36:43.119Z,100057.20
2018-05-21T21:39:12.150Z,100061.89
2018-05-21T21:41:40.849Z,100057.81
2018-05-21T21:44:09.952Z,100054.55
2018-05-21T21:46:38.643Z,100054.13
2018-05-21T21:49:08.118Z,100056.31
2018-05-21T21:51:37.254Z,100052.86
2018-05-21T21:54:06.665Z,100057.06
2018-05-21T21:56:36.766Z,100059.47
2018-05-21T21:59:05.656Z,100055.78
2018-05-21T22:01:40.556Z,100082.16
2018-05-21T22:04:09.208Z,100085.02
2018-05-21T22:06:40.182Z,100078.32
2018-05-21T22:09:08.760Z,100072.54
2018-05-21T22:11:37.290Z,100087.66
2018-05-21T22:14:12.127Z,100097.20
2018-05-21T22:16:41.681Z,100093.00
2018-05-21T22:19:10.257Z,100079.80
2018-05-21T22:21:52.900Z,100068.48
2018-05-21T22:24:21.693Z,100082.52
2018-05-21T22:26:51.011Z,100087.55
2018-05-21T22:29:20.013Z,100084.59
2018-05-21T22:31:48.563Z,100081.92
2018-05-21T22:34:17.118Z,100071.95
2018-05-21T22:36:46.333Z,100066.36
2018-05-21T22:39:14.924Z,100067.63
2018-05-21T22:41:43.755Z,100070.66
2018-05-21T22:44:13.031Z,100070.23
2018-05-21T22:46:41.647Z,100068.68
2018-05-21T22:49:10.099Z,100066.59
2018-05-21T22:51:39.322Z,100061.54
2018-05-21T22:54:07.882Z,100060.80
2018-05-21T22:56:36.450Z,100057.70
2018-05-21T22:59:05.406Z,100055.83
2018-05-21T23:01:34.209Z,100052.34
2018-05-21T23:04:08.147Z,100054.41
2018-05-21T23:06:37.057Z,100047.09
2018-05-21T23:09:06.685Z,100049.00
2018-05-21T23:11:35.258Z,100042.67
2018-05-21T23:14:08.450Z,100047.89
2018-05-21T23:16:36.965Z,100044.52
2018-05-21T23:19:05.473Z,100039.69
2018-05-21T23:21:34.647Z,100046.38
2018-05-21T23:24:10.288Z,100051.97
2018-05-21T23:26:40.182Z,100047.73
2018-05-21T23:29:09.140Z,100043.27
2018-05-21T23:31:37.703Z,100030.06
2018-05-21T23:34:06.227Z,100026.34
2018-05-21T23:39:14.350Z,100017.41
2018-05-21T23:41:47.234Z,100025.02
2018-05-21T23:44:15.784Z,100029.30
2018-05-21T23:46:44.533Z,100026.61
2018-05-21T23:49:13.437Z,100024.17
2018-05-21T23:51:41.979Z,100029.33
2018-05-21T23:54:10.515Z,100031.58
2018-05-21T23:56:40.283Z,100024.48
2018-05-21T23:59:08.810Z,100031.24
